Time;durP1;ratioP1;P1;durP2;ratioP2;P2;SDS_P1;SDS_P2;PMS_P1;PMS_P2;Temp;Humidity;BMP_temperature;BMP_pressure;BME280_temperature;BME280_humidity;BME280_pressure;Samples;Min_cycle;Max_cycle;Signal;HPM_P1;HPM_P2
2021/01/14 00:03:43;;;;;;;;;;;5.00;99.90;;;;;;10446345;28;19928;-64
2021/01/14 00:08:45;;;;;;;;;;;5.00;99.90;;;;;;10445243;28;19971;-64
2021/01/14 00:13:46;;;;;;;;;;;4.90;99.90;;;;;;10445834;28;20300;-65
2021/01/14 00:18:48;;;;;;;;;;;5.00;99.90;;;;;;10445507;28;19931;-65
2021/01/14 00:23:49;;;;;;;;;;;5.00;99.90;;;;;;10445635;28;19929;-64
2021/01/14 00:28:50;;;;;;;;;;;5.00;99.90;;;;;;10448054;28;19976;-64
2021/01/14 00:33:52;;;;;;;;;;;5.00;99.90;;;;;;10453075;28;20011;-64
2021/01/14 00:38:53;;;;;;;;;;;5.00;99.90;;;;;;10469051;28;19975;-64
2021/01/14 00:43:54;;;;;;;;;;;5.00;99.90;;;;;;10468428;28;19931;-64
2021/01/14 00:48:56;;;;;;;;;;;4.90;99.90;;;;;;10452129;28;20345;-64
2021/01/14 00:53:57;;;;;;;;;;;5.00;99.90;;;;;;10453212;28;20014;-65
2021/01/14 00:58:59;;;;;;;;;;;4.90;99.90;;;;;;10452072;28;19972;-64
2021/01/14 01:04:01;;;;;;;;;;;4.90;99.90;;;;;;10452465;28;19951;-64
2021/01/14 01:09:03;;;;;;;;;;;5.00;99.90;;;;;;10452297;28;19986;-65
2021/01/14 01:14:05;;;;;;;;;;;4.90;99.90;;;;;;10450784;28;20389;-64
2021/01/14 01:19:07;;;;;;;;;;;4.90;99.90;;;;;;10451910;28;19955;-64
2021/01/14 01:24:09;;;;;;;;;;;4.90;99.90;;;;;;10451848;28;20015;-64
2021/01/14 01:29:10;;;;;;;;;;;4.90;99.90;;;;;;10450798;28;20020;-64
2021/01/14 01:34:12;;;;;;;;;;;4.90;99.90;;;;;;10451150;28;19929;-64
2021/01/14 01:39:14;;;;;;;;;;;4.80;99.90;;;;;;10465603;28;19968;-64
2021/01/14 01:44:15;;;;;;;;;;;4.80;99.90;;;;;;10450271;28;20349;-64
2021/01/14 01:49:17;;;;;;;;;;;4.80;99.90;;;;;;10450347;28;19924;-64
2021/01/14 01:54:20;;;;;;;;;;;4.70;99.90;;;;;;10450242;28;20023;-64
2021/01/14 01:59:21;;;;;;;;;;;4.70;99.90;;;;;;10450082;28;20011;-64
2021/01/14 02:04:23;;;;;;;;;;;4.70;99.90;;;;;;10450005;28;19928;-64
2021/01/14 02:09:24;;;;;;;;;;;4.60;99.90;;;;;;10450100;28;19925;-63
2021/01/14 02:14:28;;;;;;;;;;;4.60;99.90;;;;;;10449106;28;20191;-64
2021/01/14 02:19:36;;;;;;;;;;;4.50;99.90;;;;;;10449701;28;19928;-64
2021/01/14 02:24:44;;;;;;;;;;;4.60;99.90;;;;;;10449682;28;19925;-64
2021/01/14 02:29:46;;;;;;;;;;;4.70;99.90;;;;;;10447573;28;19968;-64
2021/01/14 02:34:49;;;;;;;;;;;4.70;99.90;;;;;;10448871;28;19974;-64
2021/01/14 02:39:50;;;;;;;;;;;4.60;99.90;;;;;;10448804;28;20372;-64
2021/01/14 02:44:51;;;;;;;;;;;4.50;99.90;;;;;;10448405;28;19931;-63
2021/01/14 02:49:53;;;;;;;;;;;4.50;99.90;;;;;;10447784;28;20006;-64
2021/01/14 02:54:56;;;;;;;;;;;4.50;99.90;;;;;;10446837;28;20348;-64
2021/01/14 03:00:00;;;;;;;;;;;4.30;99.90;;;;;;10478521;28;20300;-63
2021/01/14 03:05:02;;;;;;;;;;;4.30;99.90;;;;;;10444467;28;19932;-64
2021/01/14 03:10:04;;;;;;;;;;;4.20;99.90;;;;;;10454743;28;19986;-64
2021/01/14 03:15:06;;;;;;;;;;;4.20;99.90;;;;;;10453481;28;19924;-64
2021/01/14 03:20:07;;;;;;;;;;;4.30;99.90;;;;;;10454523;28;20461;-64
2021/01/14 03:25:12;;;;;;;;;;;4.20;99.90;;;;;;10453986;28;19925;-64
2021/01/14 03:30:16;;;;;;;;;;;4.20;99.90;;;;;;10453034;28;20269;-64
2021/01/14 03:35:18;;;;;;;;;;;4.30;99.90;;;;;;10453998;28;19950;-63
2021/01/14 03:40:19;;;;;;;;;;;4.40;99.90;;;;;;10453530;28;20424;-64
2021/01/14 03:45:20;;;;;;;;;;;4.30;99.90;;;;;;10453149;28;20431;-63
2021/01/14 03:50:22;;;;;;;;;;;4.20;99.90;;;;;;10453297;28;20281;-63
2021/01/14 03:55:25;;;;;;;;;;;4.10;99.90;;;;;;10453360;28;19932;-64
2021/01/14 04:00:26;;;;;;;;;;;4.10;99.90;;;;;;10452447;28;19968;-64
2021/01/14 04:05:27;;;;;;;;;;;4.10;99.90;;;;;;10458829;28;19978;-64
2021/01/14 04:10:29;;;;;;;;;;;4.10;99.90;;;;;;10461732;28;19931;-64
2021/01/14 04:15:30;;;;;;;;;;;4.10;99.90;;;;;;10458357;28;20033;-63
2021/01/14 04:20:31;;;;;;;;;;;4.10;99.90;;;;;;10459773;28;19979;-63
2021/01/14 04:25:35;;;;;;;;;;;4.10;99.90;;;;;;10459780;28;19944;-64
2021/01/14 04:30:36;;;;;;;;;;;4.00;99.90;;;;;;10458389;28;19929;-64
2021/01/14 04:35:44;;;;;;;;;;;4.00;99.90;;;;;;10459940;28;19928;-64
2021/01/14 04:40:45;;;;;;;;;;;4.00;99.90;;;;;;10459414;28;20015;-63
2021/01/14 04:45:47;;;;;;;;;;;3.90;99.90;;;;;;10458111;28;20514;-63
2021/01/14 04:50:49;;;;;;;;;;;4.00;99.90;;;;;;10456749;28;19936;-64
2021/01/14 04:55:53;;;;;;;;;;;4.00;99.90;;;;;;10458875;28;19995;-64
2021/01/14 05:00:56;;;;;;;;;;;4.00;99.90;;;;;;10457262;28;19936;-64
2021/01/14 05:05:57;;;;;;;;;;;4.00;99.90;;;;;;10456889;28;19935;-64
2021/01/14 05:11:00;;;;;;;;;;;4.00;99.90;;;;;;10458032;28;20387;-64
2021/01/14 05:16:03;;;;;;;;;;;4.00;99.90;;;;;;10452271;28;20029;-64
2021/01/14 05:21:05;;;;;;;;;;;4.00;99.90;;;;;;10451298;28;19971;-64
2021/01/14 05:26:06;;;;;;;;;;;4.00;99.90;;;;;;10450942;28;19924;-63
2021/01/14 05:31:15;;;;;;;;;;;3.90;99.90;;;;;;10450278;28;19936;-64
2021/01/14 05:36:16;;;;;;;;;;;3.90;99.90;;;;;;10451018;28;20428;-64
2021/01/14 05:41:21;;;;;;;;;;;3.90;99.90;;;;;;10450271;28;19978;-64
2021/01/14 05:46:23;;;;;;;;;;;3.90;99.90;;;;;;10449727;28;19985;-63
2021/01/14 05:51:24;;;;;;;;;;;3.90;99.90;;;;;;10478058;28;19955;-64
2021/01/14 05:56:33;;;;;;;;;;;3.90;99.90;;;;;;10449330;28;20410;-64
2021/01/14 06:01:36;;;;;;;;;;;3.90;99.90;;;;;;10445288;28;20007;-64
2021/01/14 06:06:38;;;;;;;;;;;3.90;99.90;;;;;;10447293;28;19975;-64
2021/01/14 06:11:39;;;;;;;;;;;4.00;99.90;;;;;;10447815;28;19947;-64
2021/01/14 06:16:50;;;;;;;;;;;3.90;99.90;;;;;;10448525;28;19925;-64
2021/01/14 06:21:55;;;;;;;;;;;4.00;99.90;;;;;;10449033;28;19995;-64
2021/01/14 06:26:57;;;;;;;;;;;3.90;99.90;;;;;;10448025;28;20274;-64
2021/01/14 06:32:04;;;;;;;;;;;3.80;99.90;;;;;;10448678;28;19931;-64
2021/01/14 06:37:07;;;;;;;;;;;3.80;99.90;;;;;;10448892;28;19979;-64
2021/01/14 06:42:19;;;;;;;;;;;3.90;99.90;;;;;;10448639;28;19948;-64
2021/01/14 06:47:32;;;;;;;;;;;3.90;99.90;;;;;;10447629;28;19928;-63
2021/01/14 06:52:39;;;;;;;;;;;3.90;99.90;;;;;;10448492;28;19947;-64
2021/01/14 06:57:41;;;;;;;;;;;3.90;99.90;;;;;;10447691;28;20004;-63
2021/01/14 07:02:43;;;;;;;;;;;3.80;99.90;;;;;;10447702;28;20032;-64
2021/01/14 07:07:45;;;;;;;;;;;3.80;99.90;;;;;;10447352;28;19976;-64
2021/01/14 07:12:47;;;;;;;;;;;3.80;99.90;;;;;;10447655;28;19925;-64
2021/01/14 07:18:00;;;;;;;;;;;3.70;99.90;;;;;;10447021;28;19925;-64
2021/01/14 07:23:03;;;;;;;;;;;3.70;99.90;;;;;;10447152;28;20028;-63
2021/01/14 07:28:04;;;;;;;;;;;3.70;99.90;;;;;;10447584;28;19936;-64
2021/01/14 07:33:06;;;;;;;;;;;3.70;99.90;;;;;;10445886;28;19924;-64
2021/01/14 07:38:12;;;;;;;;;;;3.70;99.90;;;;;;10445598;28;19924;-64
2021/01/14 07:43:33;;;;;;;;;;;3.80;99.90;;;;;;10444998;28;20383;-64
2021/01/14 07:48:34;;;;;;;;;;;3.90;99.90;;;;;;10443824;28;20023;-64
2021/01/14 07:53:36;;;;;;;;;;;3.90;99.90;;;;;;10444775;28;20519;-63
2021/01/14 07:58:44;;;;;;;;;;;3.90;99.90;;;;;;10445898;28;20304;-64
2021/01/14 08:03:45;;;;;;;;;;;3.90;99.90;;;;;;10444594;28;20343;-64
2021/01/14 08:09:00;;;;;;;;;;;3.90;99.90;;;;;;10445337;28;19929;-64
2021/01/14 08:14:16;;;;;;;;;;;4.00;99.90;;;;;;10445115;28;20695;-64
2021/01/14 08:19:26;;;;;;;;;;;4.00;99.90;;;;;;10445423;28;20393;-64
2021/01/14 08:24:44;;;;;;;;;;;3.90;99.90;;;;;;10445299;28;19935;-64
2021/01/14 08:29:53;;;;;;;;;;;4.00;99.90;;;;;;10444013;28;20415;-64
2021/01/14 08:34:55;;;;;;;;;;;4.10;99.90;;;;;;10445875;28;20451;-64
2021/01/14 08:40:02;;;;;;;;;;;4.30;99.90;;;;;;10445756;28;20006;-64
2021/01/14 08:45:07;;;;;;;;;;;4.30;99.90;;;;;;10445926;28;19924;-64
2021/01/14 08:50:08;;;;;;;;;;;4.20;99.90;;;;;;10447353;28;20380;-64
2021/01/14 08:55:12;;;;;;;;;;;4.30;99.90;;;;;;10453489;28;20405;-64
2021/01/14 09:00:15;;;;;;;;;;;4.30;99.90;;;;;;10452603;28;20012;-64
2021/01/14 09:05:16;;;;;;;;;;;4.20;99.90;;;;;;10453571;28;20007;-64
2021/01/14 09:10:17;;;;;;;;;;;4.30;99.90;;;;;;10452798;28;19947;-64
2021/01/14 09:15:25;;;;;;;;;;;4.40;99.90;;;;;;10451602;28;19968;-64
2021/01/14 09:20:29;;;;;;;;;;;4.40;99.90;;;;;;10467842;28;19974;-64
2021/01/14 09:25:34;;;;;;;;;;;4.40;99.90;;;;;;10452119;28;19960;-64
2021/01/14 09:30:36;;;;;;;;;;;4.40;99.90;;;;;;10451326;28;19972;-64
2021/01/14 09:35:37;;;;;;;;;;;4.40;99.90;;;;;;10451831;28;19925;-64
2021/01/14 09:40:39;;;;;;;;;;;4.50;99.90;;;;;;10451311;28;19929;-64
2021/01/14 09:45:40;;;;;;;;;;;4.60;99.90;;;;;;10450822;28;19935;-63
2021/01/14 09:50:41;;;;;;;;;;;4.60;99.90;;;;;;10458930;28;19925;-64
2021/01/14 09:55:43;;;;;;;;;;;4.60;99.90;;;;;;10460850;28;19972;-64
2021/01/14 10:00:48;;;;;;;;;;;4.70;99.90;;;;;;10461364;28;20221;-64
2021/01/14 10:05:50;;;;;;;;;;;4.90;99.90;;;;;;10450357;28;20216;-64
2021/01/14 10:10:52;;;;;;;;;;;5.00;99.90;;;;;;10449327;28;19936;-64
2021/01/14 10:16:08;;;;;;;;;;;4.90;99.90;;;;;;10446534;28;19959;-65
2021/01/14 10:21:09;;;;;;;;;;;5.00;99.90;;;;;;10448852;28;20435;-64
2021/01/14 10:26:10;;;;;;;;;;;5.10;99.90;;;;;;10442441;28;19931;-64
2021/01/14 10:31:30;;;;;;;;;;;5.10;99.90;;;;;;10444305;28;20036;-64
2021/01/14 10:36:48;;;;;;;;;;;5.00;99.90;;;;;;10422036;28;19940;-64
2021/01/14 10:41:49;;;;;;;;;;;5.00;99.90;;;;;;10440468;28;19935;-64
2021/01/14 10:46:51;;;;;;;;;;;5.20;99.90;;;;;;10442673;28;19932;-64
2021/01/14 10:51:53;;;;;;;;;;;5.20;99.90;;;;;;10364492;28;19932;-64
2021/01/14 10:56:54;;;;;;;;;;;5.20;99.90;;;;;;10363710;28;19987;-65
2021/01/14 11:02:03;;;;;;;;;;;5.20;99.90;;;;;;10365772;28;20520;-64
2021/01/14 11:07:12;;;;;;;;;;;5.10;99.90;;;;;;10381572;28;19932;-64
2021/01/14 11:12:13;;;;;;;;;;;5.20;99.90;;;;;;10365434;28;19929;-64
2021/01/14 11:17:31;;;;;;;;;;;5.50;99.90;;;;;;10365551;28;19933;-63
2021/01/14 11:22:38;;;;;;;;;;;5.40;99.90;;;;;;10365615;28;19929;-64
2021/01/14 11:27:39;;;;;;;;;;;5.30;99.90;;;;;;10365581;28;19975;-63
2021/01/14 11:32:41;;;;;;;;;;;5.40;99.90;;;;;;10365114;28;20051;-64
2021/01/14 11:37:42;;;;;;;;;;;5.40;99.90;;;;;;10364972;28;20008;-64
2021/01/14 11:42:43;;;;;;;;;;;5.70;99.90;;;;;;10365397;28;20012;-64
2021/01/14 11:47:45;;;;;;;;;;;5.60;99.90;;;;;;10379318;28;20302;-64
2021/01/14 11:52:46;;;;;;;;;;;5.60;99.90;;;;;;10462428;28;19924;-63
2021/01/14 11:57:47;;;;;;;;;;;5.60;99.40;;;;;;10446539;28;20421;-64
2021/01/14 12:02:49;;;;;;;;;;;5.60;99.90;;;;;;10446383;28;20019;-64
2021/01/14 12:07:50;;;;;;;;;;;5.50;99.90;;;;;;10446427;28;19960;-64
2021/01/14 12:12:53;;;;;;;;;;;5.50;99.90;;;;;;10445151;28;19932;-64
2021/01/14 12:17:54;;;;;;;;;;;5.40;99.90;;;;;;10446048;28;20011;-64
2021/01/14 12:22:56;;;;;;;;;;;5.40;99.90;;;;;;10446554;28;19925;-64
2021/01/14 12:27:57;;;;;;;;;;;5.40;99.90;;;;;;10454559;28;19936;-64
2021/01/14 12:32:58;;;;;;;;;;;5.60;99.90;;;;;;10454211;28;19987;-63
2021/01/14 12:38:00;;;;;;;;;;;5.70;99.90;;;;;;10453993;28;20015;-64
2021/01/14 12:43:01;;;;;;;;;;;5.80;99.40;;;;;;10452827;28;20040;-64
2021/01/14 12:48:05;;;;;;;;;;;5.50;99.90;;;;;;10453405;28;19924;-64
2021/01/14 12:53:07;;;;;;;;;;;5.50;99.90;;;;;;10453747;28;19925;-64
2021/01/14 12:58:08;;;;;;;;;;;5.60;99.50;;;;;;10452914;28;20015;-64
2021/01/14 13:03:09;;;;;;;;;;;5.60;99.90;;;;;;10452858;28;19979;-64
2021/01/14 13:08:11;;;;;;;;;;;5.70;99.90;;;;;;10453054;28;19976;-64
2021/01/14 13:13:12;;;;;;;;;;;5.70;99.90;;;;;;10451334;28;20015;-64
2021/01/14 13:18:13;;;;;;;;;;;5.80;99.90;;;;;;10452604;28;19925;-64
2021/01/14 13:23:15;;;;;;;;;;;5.70;99.90;;;;;;10452857;28;20402;-63
2021/01/14 13:28:16;;;;;;;;;;;5.50;99.90;;;;;;10451566;28;20337;-64
2021/01/14 13:33:18;;;;;;;;;;;5.50;99.90;;;;;;10451385;28;19978;-64
2021/01/14 13:38:20;;;;;;;;;;;5.70;99.90;;;;;;10450111;28;20365;-64
2021/01/14 13:43:25;;;;;;;;;;;5.60;99.90;;;;;;10451827;28;19924;-64
2021/01/14 13:48:26;;;;;;;;;;;5.50;99.90;;;;;;10451071;28;19999;-64
2021/01/14 13:53:27;;;;;;;;;;;5.50;99.90;;;;;;10451264;28;19959;-64
2021/01/14 13:58:30;;;;;;;;;;;5.50;99.90;;;;;;10450781;28;19931;-64
2021/01/14 14:03:32;;;;;;;;;;;5.20;99.90;;;;;;10450856;28;20372;-64
2021/01/14 14:08:51;;;;;;;;;;;5.10;99.90;;;;;;10450834;28;19925;-64
2021/01/14 14:13:53;;;;;;;;;;;5.10;99.90;;;;;;10464390;28;19967;-64
2021/01/14 14:18:55;;;;;;;;;;;5.10;99.90;;;;;;10450612;28;20015;-64
2021/01/14 14:23:56;;;;;;;;;;;5.20;99.90;;;;;;10450388;28;19925;-64
2021/01/14 14:29:00;;;;;;;;;;;5.10;99.90;;;;;;10449172;28;19929;-64
2021/01/14 14:34:01;;;;;;;;;;;5.00;99.90;;;;;;10449906;28;20442;-64
2021/01/14 14:39:03;;;;;;;;;;;5.00;99.90;;;;;;10449422;28;19979;-64
2021/01/14 14:44:05;;;;;;;;;;;4.90;99.90;;;;;;10448442;28;20451;-64
2021/01/14 14:49:06;;;;;;;;;;;4.80;99.90;;;;;;10448653;28;19936;-64
2021/01/14 14:54:07;;;;;;;;;;;4.70;99.90;;;;;;10449611;28;19924;-64
2021/01/14 14:59:09;;;;;;;;;;;4.60;99.90;;;;;;10447815;28;20024;-64
2021/01/14 15:04:10;;;;;;;;;;;4.40;99.90;;;;;;10448273;28;19968;-64
2021/01/14 15:09:11;;;;;;;;;;;4.30;99.90;;;;;;10447942;28;19933;-64
2021/01/14 15:14:13;;;;;;;;;;;4.40;99.90;;;;;;10447530;28;19929;-63
2021/01/14 15:19:14;;;;;;;;;;;4.20;99.90;;;;;;10447951;28;20408;-63
2021/01/14 15:24:15;;;;;;;;;;;4.10;99.90;;;;;;10448233;28;20016;-64
2021/01/14 15:29:21;;;;;;;;;;;4.10;99.90;;;;;;10447018;28;19928;-63
2021/01/14 15:34:22;;;;;;;;;;;4.00;99.90;;;;;;10447253;28;19929;-63
2021/01/14 15:39:24;;;;;;;;;;;4.00;99.90;;;;;;10447185;28;20419;-63
2021/01/14 15:44:25;;;;;;;;;;;3.90;99.90;;;;;;10461681;28;20300;-63
2021/01/14 15:49:27;;;;;;;;;;;3.70;99.90;;;;;;10447154;28;20229;-64
2021/01/14 15:54:28;;;;;;;;;;;3.60;99.90;;;;;;10446733;28;20380;-64
2021/01/14 15:59:35;;;;;;;;;;;3.60;99.90;;;;;;10445404;28;19925;-64
2021/01/14 16:04:40;;;;;;;;;;;3.60;99.90;;;;;;10446664;28;19971;-64
2021/01/14 16:09:43;;;;;;;;;;;3.60;99.90;;;;;;10446759;28;20015;-63
2021/01/14 16:14:44;;;;;;;;;;;3.60;99.90;;;;;;10445909;28;19964;-63
2021/01/14 16:19:46;;;;;;;;;;;3.70;99.90;;;;;;10446471;28;20440;-64
2021/01/14 16:24:48;;;;;;;;;;;3.60;99.90;;;;;;10446383;28;19975;-64
2021/01/14 16:29:49;;;;;;;;;;;3.50;99.90;;;;;;10445495;28;19924;-64
2021/01/14 16:34:51;;;;;;;;;;;3.30;99.90;;;;;;10445921;28;19935;-64
2021/01/14 16:39:52;;;;;;;;;;;3.20;99.90;;;;;;10446172;28;20383;-64
2021/01/14 16:44:54;;;;;;;;;;;3.20;99.90;;;;;;10445259;28;19924;-63
2021/01/14 16:49:55;;;;;;;;;;;3.20;99.90;;;;;;10445439;28;20015;-63
2021/01/14 16:54:56;;;;;;;;;;;3.10;99.90;;;;;;10445717;28;20408;-63
2021/01/14 16:59:58;;;;;;;;;;;3.10;99.90;;;;;;10444809;28;19975;-64
2021/01/14 17:04:59;;;;;;;;;;;3.10;99.90;;;;;;10445401;28;19948;-64
2021/01/14 17:10:00;;;;;;;;;;;3.10;99.90;;;;;;10445430;28;19925;-64
2021/01/14 17:15:02;;;;;;;;;;;3.10;99.90;;;;;;10452598;28;19964;-63
2021/01/14 17:20:04;;;;;;;;;;;3.10;99.90;;;;;;10451166;28;19986;-63
2021/01/14 17:25:06;;;;;;;;;;;3.00;99.90;;;;;;10452422;28;19948;-63
2021/01/14 17:30:08;;;;;;;;;;;3.10;99.90;;;;;;10451374;28;20575;-64
2021/01/14 17:35:10;;;;;;;;;;;3.00;99.90;;;;;;10451713;28;19975;-64
2021/01/14 17:40:12;;;;;;;;;;;3.10;99.90;;;;;;10451848;28;19932;-64
2021/01/14 17:45:13;;;;;;;;;;;3.00;99.90;;;;;;10451584;28;19932;-63
2021/01/14 17:50:14;;;;;;;;;;;3.00;99.90;;;;;;10450803;28;20354;-64
2021/01/14 17:55:16;;;;;;;;;;;2.90;99.90;;;;;;10451415;28;19967;-63
2021/01/14 18:00:19;;;;;;;;;;;2.70;99.90;;;;;;10451191;28;20614;-64
2021/01/14 18:05:20;;;;;;;;;;;2.70;99.90;;;;;;10450699;28;19984;-64
2021/01/14 18:10:22;;;;;;;;;;;2.60;99.90;;;;;;10450420;28;19925;-64
2021/01/14 18:15:23;;;;;;;;;;;2.50;99.90;;;;;;10450206;28;20012;-64
2021/01/14 18:20:39;;;;;;;;;;;2.40;99.90;;;;;;10450056;28;19924;-63
2021/01/14 18:25:41;;;;;;;;;;;2.40;99.90;;;;;;10449726;28;20296;-64
2021/01/14 18:30:42;;;;;;;;;;;2.50;99.90;;;;;;10449597;28;20008;-63
2021/01/14 18:35:47;;;;;;;;;;;2.40;99.90;;;;;;10449250;28;19924;-63
2021/01/14 18:40:48;;;;;;;;;;;2.40;99.90;;;;;;10449672;28;19931;-63
2021/01/14 18:45:50;;;;;;;;;;;2.40;99.90;;;;;;10447792;28;19932;-63
2021/01/14 18:50:51;;;;;;;;;;;2.30;99.90;;;;;;10448782;28;20007;-63
2021/01/14 18:55:53;;;;;;;;;;;2.30;99.90;;;;;;10449037;28;20377;-63
2021/01/14 19:00:55;;;;;;;;;;;2.40;99.90;;;;;;10448633;28;19925;-64
2021/01/14 19:05:56;;;;;;;;;;;2.50;99.90;;;;;;10448427;28;20094;-63
2021/01/14 19:10:58;;;;;;;;;;;2.50;99.90;;;;;;10448741;28;20332;-64
2021/01/14 19:16:00;;;;;;;;;;;2.50;99.90;;;;;;10462807;28;19975;-63
2021/01/14 19:21:01;;;;;;;;;;;2.50;99.90;;;;;;10446835;28;19948;-63
2021/01/14 19:26:03;;;;;;;;;;;2.40;99.90;;;;;;10447885;28;19925;-63
2021/01/14 19:31:04;;;;;;;;;;;2.40;99.90;;;;;;10447347;28;20027;-63
2021/01/14 19:36:06;;;;;;;;;;;2.30;99.90;;;;;;10446659;28;19925;-63
2021/01/14 19:41:07;;;;;;;;;;;2.40;99.90;;;;;;10447211;28;20003;-63
2021/01/14 19:46:09;;;;;;;;;;;2.30;99.90;;;;;;10445304;28;19971;-63
2021/01/14 19:51:11;;;;;;;;;;;2.30;99.90;;;;;;10446892;28;19959;-63
2021/01/14 19:56:12;;;;;;;;;;;2.30;99.90;;;;;;10446963;28;19956;-64
2021/01/14 20:01:13;;;;;;;;;;;2.40;99.90;;;;;;10446684;28;20024;-63
2021/01/14 20:06:17;;;;;;;;;;;2.30;99.90;;;;;;10447034;28;20028;-63
2021/01/14 20:11:28;;;;;;;;;;;2.40;99.90;;;;;;10461687;28;19991;-63
2021/01/14 20:16:29;;;;;;;;;;;2.30;99.90;;;;;;10446202;28;20019;-63
2021/01/14 20:21:31;;;;;;;;;;;2.20;99.90;;;;;;10446312;28;19929;-63
2021/01/14 20:26:33;;;;;;;;;;;2.00;99.90;;;;;;10446286;28;19929;-63
2021/01/14 20:31:34;;;;;;;;;;;2.10;99.90;;;;;;10445598;28;20020;-63
2021/01/14 20:36:35;;;;;;;;;;;2.00;99.90;;;;;;10445722;28;19925;-63
2021/01/14 20:41:37;;;;;;;;;;;1.90;99.90;;;;;;10445889;28;19960;-63
2021/01/14 20:46:38;;;;;;;;;;;1.90;99.90;;;;;;10449709;28;20260;-63
2021/01/14 20:51:40;;;;;;;;;;;2.00;99.90;;;;;;10453481;28;19925;-64
2021/01/14 20:56:41;;;;;;;;;;;2.00;99.90;;;;;;10453419;28;19929;-63
2021/01/14 21:01:42;;;;;;;;;;;1.90;99.90;;;;;;10451730;28;19955;-63
2021/01/14 21:06:44;;;;;;;;;;;2.00;99.90;;;;;;10453333;28;19925;-63
2021/01/14 21:11:45;;;;;;;;;;;1.70;99.90;;;;;;10452885;28;19968;-64
2021/01/14 21:16:47;;;;;;;;;;;1.70;99.90;;;;;;10451110;28;20369;-63
2021/01/14 21:21:49;;;;;;;;;;;1.80;99.90;;;;;;10452488;28;19932;-63
2021/01/14 21:26:50;;;;;;;;;;;1.70;99.90;;;;;;10452379;28;19928;-63
2021/01/14 21:31:52;;;;;;;;;;;1.60;99.90;;;;;;10451710;28;19931;-63
2021/01/14 21:36:53;;;;;;;;;;;1.80;99.90;;;;;;10450593;28;19970;-63
2021/01/14 21:41:55;;;;;;;;;;;1.70;99.90;;;;;;10452037;28;19925;-63
2021/01/14 21:46:56;;;;;;;;;;;1.70;99.90;;;;;;10450620;28;20035;-63
2021/01/14 21:51:57;;;;;;;;;;;1.60;99.90;;;;;;10451899;28;20372;-63
2021/01/14 21:57:00;;;;;;;;;;;1.60;99.90;;;;;;10450187;28;20312;-63
2021/01/14 22:02:01;;;;;;;;;;;1.60;99.90;;;;;;10450609;28;19929;-63
2021/01/14 22:07:03;;;;;;;;;;;1.50;99.90;;;;;;10450703;28;19932;-63
2021/01/14 22:12:05;;;;;;;;;;;1.60;99.90;;;;;;10450498;28;19928;-63
2021/01/14 22:17:06;;;;;;;;;;;1.50;99.90;;;;;;10447410;28;19996;-63
2021/01/14 22:22:07;;;;;;;;;;;1.50;99.90;;;;;;10449589;28;19925;-63
2021/01/14 22:27:09;;;;;;;;;;;1.50;99.90;;;;;;10448073;28;20373;-63
2021/01/14 22:32:10;;;;;;;;;;;1.50;99.90;;;;;;10448815;28;19975;-63
2021/01/14 22:37:11;;;;;;;;;;;1.40;99.90;;;;;;10449137;28;19983;-63
2021/01/14 22:42:13;;;;;;;;;;;1.40;99.90;;;;;;10447644;28;19955;-63
2021/01/14 22:47:14;;;;;;;;;;;1.40;99.90;;;;;;10447147;28;20098;-63
2021/01/14 22:52:15;;;;;;;;;;;1.40;99.90;;;;;;10447619;28;20425;-64
2021/01/14 22:57:17;;;;;;;;;;;1.50;99.90;;;;;;10447289;28;20023;-63
2021/01/14 23:02:18;;;;;;;;;;;1.60;99.90;;;;;;10447161;28;19952;-63
2021/01/14 23:07:19;;;;;;;;;;;1.60;99.90;;;;;;10446465;28;19932;-63
2021/01/14 23:12:21;;;;;;;;;;;1.70;99.90;;;;;;10445691;28;19929;-63
2021/01/14 23:17:22;;;;;;;;;;;1.80;99.90;;;;;;10447160;28;19925;-63
2021/01/14 23:22:23;;;;;;;;;;;1.80;99.90;;;;;;10446397;28;19975;-63
2021/01/14 23:27:27;;;;;;;;;;;1.80;99.90;;;;;;10460743;28;19975;-63
2021/01/14 23:32:30;;;;;;;;;;;1.80;99.90;;;;;;10446348;28;19925;-63
2021/01/14 23:37:32;;;;;;;;;;;1.90;99.90;;;;;;10445975;28;19925;-63
2021/01/14 23:42:33;;;;;;;;;;;1.80;99.90;;;;;;10445893;28;19924;-63
2021/01/14 23:47:37;;;;;;;;;;;1.90;99.90;;;;;;10444615;28;19929;-63
2021/01/14 23:52:39;;;;;;;;;;;1.80;99.90;;;;;;10444884;28;19929;-63
2021/01/14 23:57:40;;;;;;;;;;;1.80;99.90;;;;;;10444954;28;20285;-63
